createdAt,value
2019-05-17T00:01:47.206Z,100823.93
2019-05-17T00:04:16.770Z,100825.62
2019-05-17T00:06:47.693Z,100818.95
2019-05-17T00:09:17.665Z,100816.45
2019-05-17T00:11:47.492Z,100816.86
2019-05-17T00:14:16.939Z,100811.80
2019-05-17T00:16:47.066Z,100813.48
2019-05-17T00:19:17.123Z,100806.27
2019-05-17T00:21:47.556Z,100813.83
2019-05-17T00:24:18.252Z,100811.48
2019-05-17T00:26:48.034Z,100814.33
2019-05-17T00:29:17.480Z,100812.14
2019-05-17T00:31:46.969Z,100809.80
2019-05-17T00:34:16.900Z,100807.10
2019-05-17T00:36:47.028Z,100808.51
2019-05-17T00:39:16.833Z,100804.63
2019-05-17T00:41:47.106Z,100801.73
2019-05-17T00:44:17.007Z,100802.23
2019-05-17T00:46:46.864Z,100795.28
2019-05-17T00:49:17.181Z,100791.25
2019-05-17T00:51:47.550Z,100788.56
2019-05-17T00:54:17.566Z,100785.84
2019-05-17T00:56:47.433Z,100781.44
2019-05-17T00:59:17.240Z,100783.28
2019-05-17T01:01:46.995Z,100783.44
2019-05-17T01:04:17.354Z,100775.04
2019-05-17T01:06:47.093Z,100776.03
2019-05-17T01:09:17.117Z,100778.23
2019-05-17T01:11:47.354Z,100777.85
2019-05-17T01:14:17.693Z,100775.32
2019-05-17T01:16:47.481Z,100772.63
2019-05-17T01:19:17.247Z,100770.60
2019-05-17T01:21:47.495Z,100764.88
2019-05-17T01:24:17.567Z,100760.85
2019-05-17T01:26:47.252Z,100759.50
2019-05-17T01:29:17.471Z,100762.66
2019-05-17T01:31:47.611Z,100758.10
2019-05-17T01:34:17.181Z,100755.70
2019-05-17T01:36:48.863Z,100757.20
2019-05-17T01:39:21.319Z,100754.17
2019-05-17T01:41:49.520Z,100757.98
2019-05-17T01:44:18.994Z,100761.45
2019-05-17T01:46:48.583Z,100758.23
2019-05-17T01:49:18.093Z,100760.36
2019-05-17T01:51:47.476Z,100759.64
2019-05-17T01:54:17.604Z,100764.33
2019-05-17T01:56:47.598Z,100766.45
2019-05-17T01:59:17.414Z,100761.92
2019-05-17T02:01:48.555Z,100759.89
2019-05-17T02:04:17.978Z,100760.05
2019-05-17T02:06:47.450Z,100766.54
2019-05-17T02:09:33.419Z,100754.27
2019-05-17T02:11:48.119Z,100753.70
2019-05-17T02:14:17.501Z,100758.66
2019-05-17T02:16:46.963Z,100754.69
2019-05-17T02:19:17.450Z,100751.52
2019-05-17T02:21:47.945Z,100751.38
2019-05-17T02:24:17.447Z,100747.09
2019-05-17T02:26:47.282Z,100747.09
2019-05-17T02:29:16.794Z,100751.47
2019-05-17T02:31:47.010Z,100748.52
2019-05-17T02:34:16.489Z,100750.28
2019-05-17T02:36:46.455Z,100742.31
2019-05-17T02:39:15.902Z,100748.56
2019-05-17T02:41:45.317Z,100742.30
2019-05-17T02:44:16.644Z,100741.87
2019-05-17T02:46:46.103Z,100737.63
2019-05-17T02:49:15.624Z,100733.87
2019-05-17T02:51:45.167Z,100732.95
2019-05-17T02:54:14.776Z,100739.19
2019-05-17T02:56:44.239Z,100734.17
2019-05-17T02:59:13.849Z,100735.36
2019-05-17T03:01:44.314Z,100731.83
2019-05-17T03:04:14.081Z,100737.28
2019-05-17T03:06:44.122Z,100725.91
2019-05-17T03:09:13.755Z,100726.82
2019-05-17T03:11:43.212Z,100719.97
2019-05-17T03:14:13.113Z,100724.06
2019-05-17T03:16:43.316Z,100721.61
2019-05-17T03:19:13.321Z,100722.65
2019-05-17T03:21:43.262Z,100723.15
2019-05-17T03:24:13.622Z,100721.11
2019-05-17T03:26:43.789Z,100718.58
2019-05-17T03:29:13.815Z,100714.67
2019-05-17T03:31:57.632Z,100715.02
2019-05-17T03:34:18.317Z,100716.67
2019-05-17T03:36:47.939Z,100703.94
2019-05-17T03:39:17.575Z,100711.22
2019-05-17T03:41:47.055Z,100708.45
2019-05-17T03:44:16.455Z,100703.25
2019-05-17T03:46:46.742Z,100703.02
2019-05-17T03:49:16.397Z,100707.27
2019-05-17T03:51:45.928Z,100702.75
2019-05-17T03:54:15.460Z,100702.25
2019-05-17T03:56:44.920Z,100699.72
2019-05-17T03:59:14.393Z,100698.50
2019-05-17T04:01:43.885Z,100695.47
2019-05-17T04:04:13.651Z,100693.44
2019-05-17T04:06:43.840Z,100694.20
2019-05-17T04:09:14.166Z,100689.25
2019-05-17T04:11:43.647Z,100692.00
2019-05-17T04:14:13.905Z,100694.48
2019-05-17T04:16:43.693Z,100694.52
2019-05-17T04:19:13.972Z,100696.12
2019-05-17T04:21:43.624Z,100698.22
2019-05-17T04:24:13.145Z,100693.12
2019-05-17T04:26:43.885Z,100693.77
2019-05-17T04:29:13.959Z,100695.61
2019-05-17T04:31:43.809Z,100696.37
2019-05-17T04:34:13.838Z,100696.52
2019-05-17T04:36:43.583Z,100693.75
2019-05-17T04:39:13.708Z,100688.89
2019-05-17T04:41:49.266Z,100691.22
2019-05-17T04:44:14.769Z,100690.42
2019-05-17T04:46:44.178Z,100690.92
2019-05-17T04:49:14.049Z,100694.19
2019-05-17T04:51:44.267Z,100689.41
2019-05-17T04:54:14.155Z,100687.42
2019-05-17T04:56:43.622Z,100684.13
2019-05-17T04:59:13.989Z,100686.31
2019-05-17T05:01:43.838Z,100686.16
2019-05-17T05:04:15.548Z,100689.77
2019-05-17T05:06:45.161Z,100684.37
2019-05-17T05:09:14.551Z,100694.95
2019-05-17T05:11:53.418Z,100690.89
2019-05-17T05:14:15.047Z,100683.27
2019-05-17T05:16:44.523Z,100686.88
2019-05-17T05:19:14.089Z,100693.12
2019-05-17T05:21:43.477Z,100692.36
2019-05-17T05:24:12.922Z,100689.11
2019-05-17T05:26:42.601Z,100692.30
2019-05-17T05:29:12.863Z,100689.61
2019-05-17T05:31:42.858Z,100682.70
2019-05-17T05:34:12.531Z,100689.89
2019-05-17T05:36:42.062Z,100684.20
2019-05-17T05:39:11.734Z,100684.91
2019-05-17T05:41:42.655Z,100684.03
2019-05-17T05:44:12.444Z,100678.98
2019-05-17T05:46:42.316Z,100686.98
2019-05-17T05:49:12.511Z,100675.85
2019-05-17T05:51:42.449Z,100680.63
2019-05-17T05:54:12.523Z,100675.38
2019-05-17T05:56:42.335Z,100670.92
2019-05-17T05:59:12.213Z,100672.59
2019-05-17T06:01:42.331Z,100667.16
2019-05-17T06:04:11.929Z,100666.39
2019-05-17T06:06:41.764Z,100661.11
2019-05-17T06:09:12.175Z,100663.41
2019-05-17T06:11:41.872Z,100658.84
2019-05-17T06:14:12.202Z,100657.88
2019-05-17T06:16:42.535Z,100662.72
2019-05-17T06:19:12.318Z,100661.66
2019-05-17T06:21:42.726Z,100656.99
2019-05-17T06:24:12.208Z,100651.19
2019-05-17T06:26:42.135Z,100654.72
2019-05-17T06:29:11.940Z,100654.89
2019-05-17T06:31:43.320Z,100647.36
2019-05-17T06:34:13.218Z,100639.01
2019-05-17T06:36:42.646Z,100635.51
2019-05-17T06:39:12.078Z,100631.16
2019-05-17T06:41:42.067Z,100629.14
2019-05-17T06:44:12.242Z,100635.23
2019-05-17T06:46:42.090Z,100637.59
2019-05-17T06:49:11.925Z,100641.36
2019-05-17T06:51:42.644Z,100635.62
2019-05-17T06:54:12.245Z,100637.52
2019-05-17T06:56:41.983Z,100634.52
2019-05-17T06:59:11.655Z,100646.47
2019-05-17T07:01:41.173Z,100634.39
2019-05-17T07:04:10.574Z,100635.82
2019-05-17T07:06:40.557Z,100642.26
2019-05-17T07:09:10.285Z,100642.33
2019-05-17T07:11:40.006Z,100641.00
2019-05-17T07:14:09.584Z,100639.05
2019-05-17T07:16:39.695Z,100640.06
2019-05-17T07:19:10.287Z,100640.91
2019-05-17T07:21:40.505Z,100641.42
2019-05-17T07:24:10.241Z,100639.88
2019-05-17T07:26:39.651Z,100648.48
2019-05-17T07:29:10.092Z,100650.84
2019-05-17T07:31:40.483Z,100643.28
2019-05-17T07:34:10.240Z,100642.08
2019-05-17T07:36:39.886Z,100639.90
2019-05-17T07:39:10.875Z,100640.58
2019-05-17T07:41:40.496Z,100638.90
2019-05-17T07:44:10.124Z,100644.44
2019-05-17T07:46:40.223Z,100644.11
2019-05-17T07:49:10.794Z,100648.81
2019-05-17T07:51:40.391Z,100643.73
2019-05-17T07:54:10.440Z,100640.73
2019-05-17T07:56:40.352Z,100648.13
2019-05-17T07:59:09.730Z,100644.11
2019-05-17T08:01:41.225Z,100645.13
2019-05-17T08:04:11.352Z,100642.78
2019-05-17T08:06:40.785Z,100636.89
2019-05-17T08:09:13.983Z,100639.60
2019-05-17T08:11:41.485Z,100632.69
2019-05-17T08:14:10.864Z,100632.89
2019-05-17T08:16:40.357Z,100627.34
2019-05-17T08:19:09.999Z,100619.57
2019-05-17T08:21:39.913Z,100616.89
2019-05-17T08:24:10.509Z,100612.16
2019-05-17T08:26:40.508Z,100604.72
2019-05-17T08:29:10.199Z,100597.14
2019-05-17T08:31:40.428Z,100600.17
2019-05-17T08:34:10.480Z,100595.28
2019-05-17T08:36:40.645Z,100587.98
2019-05-17T08:39:10.497Z,100596.27
2019-05-17T08:41:40.536Z,100598.45
2019-05-17T08:44:10.411Z,100591.00
2019-05-17T08:46:40.150Z,100589.27
2019-05-17T08:49:09.900Z,100585.08
2019-05-17T08:51:39.822Z,100591.65
2019-05-17T08:54:10.457Z,100591.98
2019-05-17T08:56:40.472Z,100594.04
2019-05-17T08:59:10.019Z,100595.09
2019-05-17T09:01:41.701Z,100595.10
2019-05-17T09:04:12.159Z,100585.17
2019-05-17T09:06:41.612Z,100585.83
2019-05-17T09:09:11.045Z,100579.77
2019-05-17T09:11:40.450Z,100573.53
2019-05-17T09:14:10.571Z,100583.99
2019-05-17T09:16:40.411Z,100588.88
2019-05-17T09:19:10.197Z,100585.80
2019-05-17T09:21:39.982Z,100584.97
2019-05-17T09:24:10.436Z,100584.09
2019-05-17T09:26:40.190Z,100577.86
2019-05-17T09:29:10.783Z,100572.95
2019-05-17T09:31:41.290Z,100569.55
2019-05-17T09:34:11.138Z,100573.45
2019-05-17T09:36:41.022Z,100579.67
2019-05-17T09:39:14.415Z,100570.22
2019-05-17T09:41:55.854Z,100574.95
2019-05-17T09:44:26.265Z,100576.61
2019-05-17T09:47:10.202Z,100576.09
2019-05-17T09:49:52.883Z,100574.05
2019-05-17T09:52:22.434Z,100579.94
2019-05-17T09:54:52.200Z,100581.61
2019-05-17T09:57:21.770Z,100573.88
2019-05-17T09:59:52.106Z,100569.52
2019-05-17T10:02:21.804Z,100565.67
2019-05-17T10:04:51.652Z,100561.26
2019-05-17T10:07:22.777Z,100557.39
2019-05-17T10:09:59.774Z,100555.02
2019-05-17T10:12:29.518Z,100556.36
2019-05-17T10:15:03.373Z,100551.83
2019-05-17T10:20:10.829Z,100552.17
2019-05-17T10:22:40.455Z,100554.39
2019-05-17T10:25:12.505Z,100556.58
2019-05-17T10:27:42.697Z,100556.73
2019-05-17T10:30:12.550Z,100557.78
2019-05-17T10:32:43.252Z,100557.61
2019-05-17T10:35:13.054Z,100545.84
2019-05-17T10:37:44.948Z,100547.69
2019-05-17T10:40:20.938Z,100550.88
2019-05-17T10:45:30.833Z,100550.73
2019-05-17T10:48:00.873Z,100546.00
2019-05-17T10:50:35.553Z,100542.80
2019-05-17T10:53:22.781Z,100542.48
2019-05-17T10:55:51.499Z,100537.08
2019-05-17T10:58:22.888Z,100535.08
2019-05-17T11:00:53.270Z,100535.89
2019-05-17T11:05:59.931Z,100528.80
2019-05-17T11:08:41.207Z,100524.42
2019-05-17T11:11:10.828Z,100528.48
2019-05-17T11:13:40.303Z,100528.98
2019-05-17T11:16:09.876Z,100526.95
2019-05-17T11:18:40.585Z,100527.12
2019-05-17T11:21:11.366Z,100529.84
2019-05-17T11:23:41.995Z,100532.85
2019-05-17T11:26:13.617Z,100526.60
2019-05-17T11:28:45.948Z,100528.13
2019-05-17T11:31:40.582Z,100532.81
2019-05-17T11:34:12.939Z,100531.81
2019-05-17T11:36:42.439Z,100530.77
2019-05-17T11:39:16.922Z,100528.07
2019-05-17T11:41:46.894Z,100527.91
2019-05-17T11:44:29.988Z,100529.79
2019-05-17T11:47:15.779Z,100527.77
2019-05-17T11:49:45.684Z,100524.76
2019-05-17T11:52:15.410Z,100523.92
2019-05-17T11:54:45.906Z,100517.34
2019-05-17T11:57:18.442Z,100523.40
2019-05-17T11:59:48.927Z,100522.06
2019-05-17T12:02:21.471Z,100521.91
2019-05-17T12:04:54.674Z,100513.77
2019-05-17T12:07:27.907Z,100518.66
2019-05-17T12:09:57.887Z,100524.06
2019-05-17T12:12:27.493Z,100524.75
2019-05-17T12:14:57.306Z,100522.89
2019-05-17T12:17:26.972Z,100515.31
2019-05-17T12:19:56.510Z,100513.12
2019-05-17T12:22:27.818Z,100507.58
2019-05-17T12:24:57.247Z,100511.63
2019-05-17T12:27:26.808Z,100508.41
2019-05-17T12:29:56.384Z,100513.96
2019-05-17T12:32:26.433Z,100511.26
2019-05-17T12:34:55.955Z,100509.91
2019-05-17T12:37:25.596Z,100516.33
2019-05-17T12:39:55.255Z,100509.57
2019-05-17T12:42:24.885Z,100504.50
2019-05-17T12:44:54.533Z,100504.52
2019-05-17T12:47:23.982Z,100502.50
2019-05-17T12:49:53.471Z,100500.32
2019-05-17T12:52:23.085Z,100495.41
2019-05-17T12:54:53.175Z,100494.23
2019-05-17T12:57:23.016Z,100488.66
2019-05-17T12:59:59.037Z,100487.84
2019-05-17T13:02:28.589Z,100489.34
2019-05-17T13:05:02.809Z,100487.14
2019-05-17T13:07:32.434Z,100486.97
2019-05-17T13:10:02.154Z,100490.50
2019-05-17T13:12:31.950Z,100484.27
2019-05-17T13:15:02.050Z,100483.43
2019-05-17T13:17:33.665Z,100478.03
2019-05-17T13:20:03.944Z,100481.94
2019-05-17T13:22:35.396Z,100476.86
2019-05-17T13:25:05.964Z,100478.86
2019-05-17T13:27:41.888Z,100479.19
2019-05-17T13:30:12.836Z,100478.16
2019-05-17T13:32:42.721Z,100481.37
2019-05-17T13:35:12.508Z,100478.48
2019-05-17T13:37:42.358Z,100483.69
2019-05-17T13:40:19.663Z,100484.89
2019-05-17T13:42:49.719Z,100489.41
2019-05-17T13:45:28.879Z,100489.73
2019-05-17T13:47:59.311Z,100491.27
2019-05-17T13:50:29.199Z,100485.88
2019-05-17T13:53:00.270Z,100478.47
2019-05-17T13:55:29.854Z,100485.36
2019-05-17T13:58:00.603Z,100482.20
2019-05-17T14:00:44.836Z,100484.91
2019-05-17T14:06:04.261Z,100477.97
2019-05-17T14:08:33.820Z,100475.77
2019-05-17T14:11:03.716Z,100474.91
2019-05-17T14:13:46.369Z,100474.02
2019-05-17T14:16:17.992Z,100472.62
2019-05-17T14:18:52.072Z,100462.78
2019-05-17T14:21:24.694Z,100467.00
2019-05-17T14:23:56.708Z,100461.55
2019-05-17T14:26:29.458Z,100461.02
2019-05-17T14:28:59.513Z,100459.33
2019-05-17T14:31:29.657Z,100461.86
2019-05-17T14:33:59.161Z,100456.31
2019-05-17T14:36:28.689Z,100456.51
2019-05-17T14:38:58.551Z,100457.69
2019-05-17T14:41:28.231Z,100449.91
2019-05-17T14:43:57.808Z,100448.21
2019-05-17T14:46:27.439Z,100452.59
2019-05-17T14:49:00.530Z,100450.56
2019-05-17T14:51:30.230Z,100444.81
2019-05-17T14:53:59.936Z,100454.28
2019-05-17T14:56:39.390Z,100445.39
2019-05-17T14:59:09.531Z,100449.25
2019-05-17T15:01:45.675Z,100448.53
2019-05-17T15:04:20.139Z,100443.97
2019-05-17T15:06:50.075Z,100448.53
2019-05-17T15:09:57.823Z,100445.75
2019-05-17T15:12:28.921Z,100441.33
2019-05-17T15:14:58.526Z,100445.17
2019-05-17T15:17:35.321Z,100442.58
2019-05-17T15:20:05.499Z,100440.66
2019-05-17T15:28:14.355Z,100429.86
2019-05-17T15:30:54.247Z,100426.97
2019-05-17T15:33:33.570Z,100426.35
2019-05-17T15:36:05.011Z,100422.70
2019-05-17T15:38:39.867Z,100417.52
2019-05-17T15:41:11.689Z,100416.33
2019-05-17T15:43:44.009Z,100416.52
2019-05-17T15:46:19.857Z,100415.38
2019-05-17T15:48:52.252Z,100413.22
2019-05-17T15:51:22.272Z,100416.81
2019-05-17T15:54:02.318Z,100410.97
2019-05-17T15:56:34.255Z,100409.42
2019-05-17T15:59:04.277Z,100407.38
2019-05-17T16:02:12.147Z,100409.19
2019-05-17T16:04:42.431Z,100402.73
2019-05-17T16:07:18.154Z,100402.45
2019-05-17T16:09:48.430Z,100400.23
2019-05-17T16:12:20.419Z,100397.91
2019-05-17T16:14:50.287Z,100393.45
2019-05-17T16:17:23.098Z,100388.29
2019-05-17T16:19:55.681Z,100392.58
2019-05-17T16:25:18.363Z,100393.81
2019-05-17T16:28:46.059Z,100390.45
2019-05-17T16:31:17.988Z,100384.40
2019-05-17T16:33:50.765Z,100378.71
2019-05-17T16:36:18.888Z,100379.57
2019-05-17T16:38:48.572Z,100380.46
2019-05-17T16:41:20.865Z,100381.64
2019-05-17T16:43:56.288Z,100382.87
2019-05-17T16:46:26.161Z,100378.84
2019-05-17T16:49:20.244Z,100380.53
2019-05-17T17:16:46.314Z,100370.62
2019-05-17T17:28:43.739Z,100362.01
2019-05-17T17:33:59.492Z,100352.95
2019-05-17T17:36:51.887Z,100353.44
2019-05-17T17:39:23.095Z,100351.39
2019-05-17T17:42:13.393Z,100347.69
2019-05-17T17:44:48.322Z,100350.72
2019-05-17T17:47:23.083Z,100346.17
2019-05-17T17:50:47.461Z,100341.79
2019-05-17T17:53:44.207Z,100344.49
2019-05-17T18:01:55.219Z,100332.44
2019-05-17T18:04:27.887Z,100336.63
2019-05-17T18:06:59.577Z,100342.75
2019-05-17T18:09:30.986Z,100343.66
2019-05-17T18:12:02.466Z,100340.02
2019-05-17T18:14:41.258Z,100341.59
2019-05-17T18:17:11.877Z,100339.11
2019-05-17T18:19:44.492Z,100343.22
2019-05-17T18:22:15.804Z,100340.89
2019-05-17T18:24:45.627Z,100347.81
2019-05-17T18:27:19.018Z,100350.05
2019-05-17T18:29:52.501Z,100355.96
2019-05-17T18:32:24.785Z,100355.64
2019-05-17T18:35:16.341Z,100357.46
2019-05-17T18:37:48.503Z,100361.19
2019-05-17T18:40:21.333Z,100355.28
2019-05-17T18:42:55.704Z,100347.19
2019-05-17T18:48:03.419Z,100366.45
2019-05-17T18:50:36.845Z,100364.45
2019-05-17T18:53:38.375Z,100359.56
2019-05-17T18:59:32.206Z,100353.84
2019-05-17T19:02:25.550Z,100354.03
2019-05-17T19:05:23.668Z,100354.87
2019-05-17T19:11:13.268Z,100353.22
2019-05-17T19:14:03.884Z,100357.08
2019-05-17T19:16:34.319Z,100361.30
2019-05-17T19:19:05.994Z,100356.56
2019-05-17T19:21:42.782Z,100361.63
2019-05-17T19:24:13.887Z,100356.23
2019-05-17T19:26:44.285Z,100366.00
2019-05-17T19:29:17.327Z,100368.22
2019-05-17T19:32:03.206Z,100367.70
2019-05-17T19:37:36.441Z,100363.16
2019-05-17T19:40:07.524Z,100359.28
2019-05-17T19:42:37.169Z,100365.84
2019-05-17T19:45:07.796Z,100362.12
2019-05-17T19:47:37.547Z,100361.59
2019-05-17T19:50:09.568Z,100363.59
2019-05-17T19:52:44.514Z,100365.63
2019-05-17T19:55:14.407Z,100361.77
2019-05-17T19:57:44.041Z,100355.54
2019-05-17T20:00:13.713Z,100360.56
2019-05-17T20:02:43.268Z,100366.31
2019-05-17T20:05:15.611Z,100360.56
2019-05-17T20:07:45.953Z,100363.95
2019-05-17T20:10:17.805Z,100363.11
2019-05-17T20:12:48.438Z,100369.51
2019-05-17T20:15:19.765Z,100371.00
2019-05-17T20:17:51.797Z,100371.69
2019-05-17T20:20:21.937Z,100380.78
2019-05-17T20:22:52.658Z,100380.45
2019-05-17T20:25:22.379Z,100374.70
2019-05-17T20:27:53.552Z,100381.97
2019-05-17T20:30:23.247Z,100378.08
2019-05-17T20:32:53.971Z,100380.30
2019-05-17T20:35:25.481Z,100381.13
2019-05-17T20:37:56.081Z,100381.64
2019-05-17T20:40:27.627Z,100377.41
2019-05-17T20:42:59.326Z,100386.52
2019-05-17T20:45:33.855Z,100383.63
2019-05-17T20:48:06.395Z,100379.10
2019-05-17T20:50:38.674Z,100378.73
2019-05-17T20:53:18.410Z,100376.56
2019-05-17T20:55:42.933Z,100370.16
2019-05-17T20:58:12.693Z,100371.17
2019-05-17T21:00:42.825Z,100360.08
2019-05-17T21:03:13.939Z,100363.94
2019-05-17T21:05:46.886Z,100362.44
2019-05-17T21:08:16.538Z,100358.54
2019-05-17T21:10:46.486Z,100355.50
2019-05-17T21:13:17.142Z,100356.20
2019-05-17T21:15:48.161Z,100355.36
2019-05-17T21:18:18.186Z,100354.33
2019-05-17T21:20:49.051Z,100360.55
2019-05-17T21:23:18.698Z,100356.86
2019-05-17T21:25:48.257Z,100356.34
2019-05-17T21:28:18.383Z,100352.97
2019-05-17T21:30:48.056Z,100358.55
2019-05-17T21:33:17.705Z,100356.02
2019-05-17T21:35:52.608Z,100357.86
2019-05-17T21:38:23.054Z,100357.02
2019-05-17T21:40:52.991Z,100357.18
2019-05-17T21:43:26.453Z,100356.20
2019-05-17T21:46:03.991Z,100352.98
2019-05-17T21:48:32.939Z,100362.41
2019-05-17T21:51:02.452Z,100353.14
2019-05-17T21:53:31.936Z,100354.48
2019-05-17T21:56:03.639Z,100353.50
2019-05-17T21:58:33.067Z,100354.67
2019-05-17T22:01:17.601Z,100351.46
2019-05-17T22:03:47.562Z,100353.31
2019-05-17T22:06:17.717Z,100348.44
2019-05-17T22:08:47.312Z,100343.89
2019-05-17T22:11:17.275Z,100344.91
2019-05-17T22:13:46.795Z,100337.33
2019-05-17T22:16:19.633Z,100340.03
2019-05-17T22:18:49.879Z,100339.50
2019-05-17T22:21:19.265Z,100335.47
2019-05-17T22:23:49.299Z,100332.59
2019-05-17T22:26:18.849Z,100327.89
2019-05-17T22:28:48.216Z,100321.16
2019-05-17T22:31:17.642Z,100316.97
2019-05-17T22:33:47.099Z,100317.11
2019-05-17T22:36:16.461Z,100314.42
2019-05-17T22:38:48.222Z,100315.10
2019-05-17T22:41:18.533Z,100315.76
2019-05-17T22:43:48.017Z,100314.77
2019-05-17T22:46:17.464Z,100311.06
2019-05-17T22:48:47.089Z,100309.03
2019-05-17T22:51:18.136Z,100299.61
2019-05-17T22:53:47.701Z,100302.64
2019-05-17T22:56:17.208Z,100302.83
2019-05-17T22:58:47.118Z,100297.77
2019-05-17T23:01:18.275Z,100294.06
2019-05-17T23:03:47.695Z,100293.07
2019-05-17T23:06:18.368Z,100284.98
2019-05-17T23:08:48.141Z,100286.82
2019-05-17T23:11:17.672Z,100284.95
2019-05-17T23:13:47.221Z,100280.75
2019-05-17T23:16:17.813Z,100282.09
2019-05-17T23:19:05.474Z,100278.38
2019-05-17T23:21:35.571Z,100281.08
2019-05-17T23:24:05.666Z,100287.12
2019-05-17T23:26:35.060Z,100292.33
2019-05-17T23:29:05.432Z,100290.16
2019-05-17T23:31:35.226Z,100285.10
2019-05-17T23:34:07.180Z,100284.77
2019-05-17T23:36:39.856Z,100288.63
2019-05-17T23:39:09.604Z,100283.42
2019-05-17T23:41:39.590Z,100284.95
2019-05-17T23:44:10.244Z,100273.34
2019-05-17T23:46:42.020Z,100280.41
2019-05-17T23:49:11.694Z,100281.75
2019-05-17T23:51:41.220Z,100277.19
2019-05-17T23:54:13.303Z,100279.39
2019-05-17T23:56:44.151Z,100278.38
2019-05-17T23:59:15.534Z,100279.72
